Latest Weather Observations for Warburto Point

IDS60801

Issued at 6:32 am CDT Friday 30 January 2015 (issued every 30 minutes, with the page automatically refreshed every 10 minutes)

About weather observations | Map of weather stations | Latest weather observations for SA | Other Formats
Station Details ID: 022053 Name: WARBURTO POINT Lat: -34.00 Lon: 137.53 Height: 1.0 m
Data from the previous 72 hours. | See also: Recent months for locations in South Australia
Date/Time
CDT
Temp
°C
App
Temp
°C
Dew
Point
Rel
Hum
%
Delta-T
°C
Wind Press
QNH
hPa
Press
MSL
hPa
Rain
since 9 am
mm
Dir
 
Spd
km/h
Gust
km/h
Spd
kts
Gust
kts
30/06:30am - - - - - ESE 30 39 16 21 - - -
30/06:00am - - - - - ESE 28 35 15 19 - - -
30/05:30am - - - - - ESE 28 33 15 18 - - -
30/05:00am - - - - - ESE 28 35 15 19 - - -
30/04:30am - - - - - ESE 30 37 16 20 - - -
30/04:00am - - - - - SE 28 35 15 19 - - -
30/03:30am - - - - - SE 32 39 17 21 - - -
30/03:00am - - - - - SE 33 44 18 24 - - -
30/02:30am - - - - - SE 32 39 17 21 - - -
30/02:00am - - - - - SE 35 43 19 23 - - -
30/01:30am - - - - - SE 35 48 19 26 - - -
30/01:00am - - - - - SE 35 46 19 25 - - -
30/12:30am - - - - - SE 39 52 21 28 - - -
30/12:00am - - - - - SE 41 54 22 29 - - -
 
Date/Time
CDT
Temp
°C
App
Temp
°C
Dew
Point
Rel
Hum
%
Delta-T
°C
Wind Press
QNH
hPa
Press
MSL
hPa
Rain
since 9 am
mm
Dir
 
Spd
km/h
Gust
km/h
Spd
kts
Gust
kts
29/11:30pm - - - - - SE 39 50 21 27 - - -
29/11:00pm - - - - - SE 41 54 22 29 - - -
29/10:30pm - - - - - SE 39 52 21 28 - - -
29/10:00pm - - - - - SE 39 50 21 27 - - -
29/09:30pm - - - - - SE 39 48 21 26 - - -
29/09:00pm - - - - - SSE 33 46 18 25 - - -
29/08:30pm - - - - - SE 32 41 17 22 - - -
29/08:00pm - - - - - SE 32 43 17 23 - - -
29/07:30pm - - - - - SSE 30 37 16 20 - - -
29/07:00pm - - - - - SE 22 30 12 16 - - -
29/06:30pm - - - - - SE 24 33 13 18 - - -
29/06:00pm - - - - - SSE 19 32 10 17 - - -
29/05:30pm - - - - - SW 20 28 11 15 - - -
29/05:00pm - - - - - SW 26 32 14 17 - - -
29/04:30pm - - - - - SSW 30 39 16 21 - - -
29/04:00pm - - - - - SW 28 37 15 20 - - -
29/03:30pm - - - - - SW 28 37 15 20 - - -
29/03:00pm - - - - - SW 26 33 14 18 - - -
29/02:30pm - - - - - WSW 24 30 13 16 - - -
29/02:00pm - - - - - WSW 28 35 15 19 - - -
29/01:30pm - - - - - WSW 30 37 16 20 - - -
29/01:00pm - - - - - W 28 35 15 19 - - -
29/12:30pm - - - - - WSW 17 28 9 15 - - -
29/12:00pm - - - - - E 24 33 13 18 - - -
29/11:30am - - - - - ESE 28 35 15 19 - - -
29/11:00am - - - - - ESE 28 35 15 19 - - -
29/10:30am - - - - - ESE 30 37 16 20 - - -
29/10:00am - - - - - ESE 32 39 17 21 - - -
29/09:30am - - - - - ESE 32 39 17 21 - - -
29/09:00am - - - - - ESE 32 43 17 23 - - -
29/08:30am - - - - - ESE 32 46 17 25 - - -
29/08:00am - - - - - ESE 32 39 17 21 - - -
29/07:30am - - - - - ESE 30 41 16 22 - - -
29/07:00am - - - - - ESE 28 33 15 18 - - -
29/06:30am - - - - - ESE 28 33 15 18 - - -
29/06:00am - - - - - ESE 26 32 14 17 - - -
29/05:30am - - - - - ESE 28 37 15 20 - - -
29/05:00am - - - - - ESE 19 26 10 14 - - -
29/04:30am - - - - - SE 20 30 11 16 - - -
29/04:00am - - - - - SSE 26 32 14 17 - - -
29/03:30am - - - - - SSE 24 33 13 18 - - -
29/03:00am - - - - - SSE 26 32 14 17 - - -
29/02:30am - - - - - SSE 24 28 13 15 - - -
29/02:00am - - - - - SSE 22 30 12 16 - - -
29/01:30am - - - - - SSE 24 30 13 16 - - -
29/01:00am - - - - - SSE 26 32 14 17 - - -
29/12:30am - - - - - SE 32 39 17 21 - - -
29/12:00am - - - - - SE 33 41 18 22 - - -
 
Date/Time
CDT
Temp
°C
App
Temp
°C
Dew
Point
Rel
Hum
%
Delta-T
°C
Wind Press
QNH
hPa
Press
MSL
hPa
Rain
since 9 am
mm
Dir
 
Spd
km/h
Gust
km/h
Spd
kts
Gust
kts
28/11:30pm - - - - - SE 35 48 19 26 - - -
28/11:00pm - - - - - SE 35 46 19 25 - - -
28/10:30pm - - - - - SSE 35 43 19 23 - - -
28/10:00pm - - - - - SSE 32 41 17 22 - - -
28/09:30pm - - - - - SSE 32 41 17 22 - - -
28/09:00pm - - - - - SSE 33 44 18 24 - - -
28/08:30pm - - - - - SSE 33 44 18 24 - - -
28/08:00pm - - - - - SSE 33 43 18 23 - - -
28/07:30pm - - - - - SSE 32 39 17 21 - - -
28/07:00pm - - - - - SSE 30 41 16 22 - - -
28/06:30pm - - - - - SSE 28 35 15 19 - - -
28/06:00pm - - - - - SSE 24 32 13 17 - - -
28/05:30pm - - - - - SSE 24 33 13 18 - - -
28/05:00pm - - - - - SSE 26 33 14 18 - - -
28/04:30pm - - - - - SSE 26 33 14 18 - - -
28/04:00pm - - - - - SE 32 37 17 20 - - -
28/03:30pm - - - - - SSE 28 35 15 19 - - -
28/03:00pm - - - - - S 26 33 14 18 - - -
28/02:30pm - - - - - SSE 24 32 13 17 - - -
28/02:00pm - - - - - SSE 26 33 14 18 - - -
28/01:30pm - - - - - SSE 24 32 13 17 - - -
28/01:00pm - - - - - SSE 20 30 11 16 - - -
28/12:30pm - - - - - SE 24 32 13 17 - - -
28/12:00pm - - - - - SSE 20 32 11 17 - - -
28/11:30am - - - - - SSE 20 28 11 15 - - -
28/11:00am - - - - - SSE 26 35 14 19 - - -
28/10:30am - - - - - SE 28 37 15 20 - - -
28/10:00am - - - - - SE 28 35 15 19 - - -
28/09:30am - - - - - SE 32 44 17 24 - - -
28/09:00am - - - - - SE 35 46 19 25 - - -
28/08:30am - - - - - SE 30 39 16 21 - - -
28/08:00am - - - - - SE 24 35 13 19 - - -
28/07:30am - - - - - ESE 19 26 10 14 - - -
28/07:00am - - - - - ESE 17 22 9 12 - - -
28/06:30am - - - - - ESE 17 22 9 12 - - -
28/06:00am - - - - - ESE 19 24 10 13 - - -
28/05:30am - - - - - ESE 19 26 10 14 - - -
28/05:00am - - - - - ESE 20 30 11 16 - - -
28/04:30am - - - - - SE 22 32 12 17 - - -
28/04:00am - - - - - SE 19 26 10 14 - - -
28/03:30am - - - - - SSE 19 24 10 13 - - -
28/03:00am - - - - - SSE 22 28 12 15 - - -
28/02:30am - - - - - SSE 26 32 14 17 - - -
28/02:00am - - - - - SSE 26 35 14 19 - - -
28/01:30am - - - - - SSE 28 37 15 20 - - -
28/01:00am - - - - - SSE 30 35 16 19 - - -
28/12:30am - - - - - SSE 35 41 19 22 - - -
28/12:00am - - - - - SSE 37 43 20 23 - - -
 
Date/Time
CDT
Temp
°C
App
Temp
°C
Dew
Point
Rel
Hum
%
Delta-T
°C
Wind Press
QNH
hPa
Press
MSL
hPa
Rain
since 9 am
mm
Dir
 
Spd
km/h
Gust
km/h
Spd
kts
Gust
kts
27/11:30pm - - - - - SSE 35 48 19 26 - - -
27/11:00pm - - - - - SSE 32 39 17 21 - - -
27/10:30pm - - - - - SSE 33 39 18 21 - - -
27/10:00pm - - - - - SSE 35 44 19 24 - - -
27/09:30pm - - - - - SSE 33 44 18 24 - - -
27/09:00pm - - - - - SSE 37 52 20 28 - - -
27/08:30pm - - - - - SSE 37 48 20 26 - - -
27/08:00pm - - - - - SSE 37 48 20 26 - - -
27/07:30pm - - - - - SSE 41 52 22 28 - - -
27/07:00pm - - - - - SSE 37 48 20 26 - - -
27/06:30pm - - - - - SSE 35 50 19 27 - - -
27/06:00pm - - - - - SSE 35 50 19 27 - - -
27/05:30pm - - - - - SSE 35 46 19 25 - - -
27/05:01pm - - - - - SSE 30 48 16 26 - - -
27/05:00pm - - - - - SSE 30 44 16 24 - - -
27/04:33pm - - - - - SSW 32 50 17 27 - - -
27/04:30pm - - - - - SSW 33 46 18 25 - - -
27/04:00pm - - - - - SE 30 43 16 23 - - -
27/03:30pm - - - - - SSE 26 33 14 18 - - -
27/03:00pm - - - - - SSE 26 35 14 19 - - -
27/02:30pm - - - - - SSE 28 39 15 21 - - -
27/02:00pm - - - - - S 24 35 13 19 - - -
27/01:30pm - - - - - SSE 20 28 11 15 - - -
27/01:00pm - - - - - SSE 24 35 13 19 - - -
27/12:30pm - - - - - SSE 22 32 12 17 - - -
27/12:00pm - - - - - S 24 30 13 16 - - -
27/11:30am - - - - - SE 20 28 11 15 - - -
27/11:00am - - - - - SSE 19 26 10 14 - - -
27/10:30am - - - - - SE 20 30 11 16 - - -
27/10:00am - - - - - SE 20 32 11 17 - - -
27/09:30am - - - - - SE 19 28 10 15 - - -
27/09:00am - - - - - ESE 19 26 10 14 - - -
27/08:30am - - - - - ESE 17 26 9 14 - - -
27/08:00am - - - - - ESE 15 19 8 10 - - -
27/07:30am - - - - - ESE 9 15 5 8 - - -
27/07:00am - - - - - ESE 11 15 6 8 - - -

Other Formats:

Comma delimited format used in spreadsheet applications
http://www.bom.gov.au/fwo/IDS60801/IDS60801.94666.axf

JavaScript Object Notation format (JSON) in row-major order
http://www.bom.gov.au/fwo/IDS60801/IDS60801.94666.json